sensor_id;sensor_type;location;lat;lon;timestamp;P1;durP1;ratioP1;P2;durP2;ratioP2
39102;SDS011;24847;48.218;16.414;2024-01-15T00:03:10;11.73;;;6.75;;
39102;SDS011;24847;48.218;16.414;2024-01-15T00:08:12;10.75;;;6.55;;
39102;SDS011;24847;48.218;16.414;2024-01-15T00:13:16;8.90;;;5.95;;
39102;SDS011;24847;48.218;16.414;2024-01-15T00:18:18;9.15;;;5.63;;
39102;SDS011;24847;48.218;16.414;2024-01-15T00:23:20;6.82;;;4.75;;
39102;SDS011;24847;48.218;16.414;2024-01-15T00:28:24;6.25;;;4.38;;
39102;SDS011;24847;48.218;16.414;2024-01-15T00:33:26;8.05;;;4.25;;
39102;SDS011;24847;48.218;16.414;2024-01-15T00:38:28;6.82;;;4.30;;
39102;SDS011;24847;48.218;16.414;2024-01-15T00:43:31;7.20;;;4.50;;
39102;SDS011;24847;48.218;16.414;2024-01-15T00:48:33;7.20;;;5.05;;
39102;SDS011;24847;48.218;16.414;2024-01-15T00:53:36;7.28;;;4.57;;
39102;SDS011;24847;48.218;16.414;2024-01-15T00:58:39;9.68;;;5.65;;
39102;SDS011;24847;48.218;16.414;2024-01-15T01:03:41;10.52;;;6.75;;
39102;SDS011;24847;48.218;16.414;2024-01-15T01:08:44;8.98;;;6.10;;
39102;SDS011;24847;48.218;16.414;2024-01-15T01:13:47;9.45;;;6.20;;
39102;SDS011;24847;48.218;16.414;2024-01-15T01:18:49;9.93;;;6.35;;
39102;SDS011;24847;48.218;16.414;2024-01-15T01:23:51;9.68;;;5.95;;
39102;SDS011;24847;48.218;16.414;2024-01-15T01:28:55;9.70;;;5.68;;
39102;SDS011;24847;48.218;16.414;2024-01-15T01:33:57;8.25;;;5.15;;
39102;SDS011;24847;48.218;16.414;2024-01-15T01:39:00;9.60;;;6.43;;
39102;SDS011;24847;48.218;16.414;2024-01-15T01:44:03;13.15;;;6.53;;
39102;SDS011;24847;48.218;16.414;2024-01-15T01:49:06;10.45;;;6.57;;
39102;SDS011;24847;48.218;16.414;2024-01-15T01:54:09;10.00;;;5.93;;
39102;SDS011;24847;48.218;16.414;2024-01-15T01:59:15;9.18;;;5.85;;
39102;SDS011;24847;48.218;16.414;2024-01-15T02:04:18;8.63;;;5.32;;
39102;SDS011;24847;48.218;16.414;2024-01-15T02:09:20;8.57;;;5.60;;
39102;SDS011;24847;48.218;16.414;2024-01-15T02:14:24;10.85;;;6.07;;
39102;SDS011;24847;48.218;16.414;2024-01-15T02:19:26;12.68;;;7.68;;
39102;SDS011;24847;48.218;16.414;2024-01-15T02:24:30;12.20;;;6.93;;
39102;SDS011;24847;48.218;16.414;2024-01-15T02:29:32;9.52;;;6.20;;
39102;SDS011;24847;48.218;16.414;2024-01-15T02:34:35;8.55;;;5.78;;
39102;SDS011;24847;48.218;16.414;2024-01-15T02:39:39;8.07;;;5.53;;
39102;SDS011;24847;48.218;16.414;2024-01-15T02:44:41;9.48;;;6.05;;
39102;SDS011;24847;48.218;16.414;2024-01-15T02:49:43;10.63;;;6.20;;
39102;SDS011;24847;48.218;16.414;2024-01-15T02:54:46;10.88;;;6.05;;
39102;SDS011;24847;48.218;16.414;2024-01-15T02:59:48;10.65;;;6.50;;
39102;SDS011;24847;48.218;16.414;2024-01-15T03:04:51;12.48;;;7.32;;
39102;SDS011;24847;48.218;16.414;2024-01-15T03:09:54;9.77;;;6.63;;
39102;SDS011;24847;48.218;16.414;2024-01-15T03:14:56;11.45;;;6.80;;
39102;SDS011;24847;48.218;16.414;2024-01-15T03:19:59;9.75;;;6.47;;
39102;SDS011;24847;48.218;16.414;2024-01-15T03:25:04;11.40;;;6.88;;
39102;SDS011;24847;48.218;16.414;2024-01-15T03:30:08;10.90;;;6.85;;
39102;SDS011;24847;48.218;16.414;2024-01-15T03:35:11;11.50;;;6.97;;
39102;SDS011;24847;48.218;16.414;2024-01-15T03:40:16;10.70;;;6.80;;
39102;SDS011;24847;48.218;16.414;2024-01-15T03:45:18;12.40;;;7.22;;
39102;SDS011;24847;48.218;16.414;2024-01-15T03:50:20;11.68;;;6.60;;
39102;SDS011;24847;48.218;16.414;2024-01-15T03:55:24;12.55;;;7.35;;
39102;SDS011;24847;48.218;16.414;2024-01-15T04:00:26;15.18;;;8.93;;
39102;SDS011;24847;48.218;16.414;2024-01-15T04:05:30;14.88;;;8.48;;
39102;SDS011;24847;48.218;16.414;2024-01-15T04:10:34;15.25;;;8.75;;
39102;SDS011;24847;48.218;16.414;2024-01-15T04:15:36;13.45;;;8.40;;
39102;SDS011;24847;48.218;16.414;2024-01-15T04:20:38;13.00;;;7.78;;
39102;SDS011;24847;48.218;16.414;2024-01-15T04:25:41;14.52;;;8.90;;
39102;SDS011;24847;48.218;16.414;2024-01-15T04:30:44;15.20;;;8.98;;
39102;SDS011;24847;48.218;16.414;2024-01-15T04:35:46;13.63;;;8.57;;
39102;SDS011;24847;48.218;16.414;2024-01-15T04:40:49;13.52;;;8.50;;
39102;SDS011;24847;48.218;16.414;2024-01-15T04:45:51;11.90;;;7.85;;
39102;SDS011;24847;48.218;16.414;2024-01-15T04:50:53;15.30;;;9.48;;
39102;SDS011;24847;48.218;16.414;2024-01-15T04:55:57;14.98;;;8.90;;
39102;SDS011;24847;48.218;16.414;2024-01-15T05:00:59;12.80;;;8.32;;
39102;SDS011;24847;48.218;16.414;2024-01-15T05:06:01;15.85;;;9.18;;
39102;SDS011;24847;48.218;16.414;2024-01-15T05:11:05;16.00;;;9.73;;
39102;SDS011;24847;48.218;16.414;2024-01-15T05:16:07;13.65;;;8.82;;
39102;SDS011;24847;48.218;16.414;2024-01-15T05:21:09;17.17;;;10.10;;
39102;SDS011;24847;48.218;16.414;2024-01-15T05:26:13;13.48;;;8.98;;
39102;SDS011;24847;48.218;16.414;2024-01-15T05:31:16;12.90;;;8.13;;
39102;SDS011;24847;48.218;16.414;2024-01-15T05:36:18;13.38;;;8.77;;
39102;SDS011;24847;48.218;16.414;2024-01-15T05:41:21;12.20;;;8.75;;
39102;SDS011;24847;48.218;16.414;2024-01-15T05:46:23;14.80;;;8.52;;
39102;SDS011;24847;48.218;16.414;2024-01-15T05:51:26;13.52;;;8.68;;
39102;SDS011;24847;48.218;16.414;2024-01-15T05:56:29;13.38;;;8.95;;
39102;SDS011;24847;48.218;16.414;2024-01-15T06:01:31;12.60;;;8.15;;
39102;SDS011;24847;48.218;16.414;2024-01-15T06:06:33;12.40;;;8.23;;
39102;SDS011;24847;48.218;16.414;2024-01-15T06:11:37;12.68;;;8.02;;
39102;SDS011;24847;48.218;16.414;2024-01-15T06:16:39;9.93;;;6.72;;
39102;SDS011;24847;48.218;16.414;2024-01-15T06:21:41;10.75;;;6.90;;
39102;SDS011;24847;48.218;16.414;2024-01-15T06:26:45;10.25;;;6.60;;
39102;SDS011;24847;48.218;16.414;2024-01-15T06:31:48;9.85;;;6.15;;
39102;SDS011;24847;48.218;16.414;2024-01-15T06:36:50;10.80;;;7.10;;
39102;SDS011;24847;48.218;16.414;2024-01-15T06:41:54;11.50;;;7.20;;
39102;SDS011;24847;48.218;16.414;2024-01-15T06:46:56;12.93;;;7.60;;
39102;SDS011;24847;48.218;16.414;2024-01-15T06:52:02;13.75;;;8.25;;
39102;SDS011;24847;48.218;16.414;2024-01-15T06:57:07;11.32;;;7.22;;
39102;SDS011;24847;48.218;16.414;2024-01-15T07:02:09;11.60;;;7.70;;
39102;SDS011;24847;48.218;16.414;2024-01-15T07:07:11;11.63;;;7.38;;
39102;SDS011;24847;48.218;16.414;2024-01-15T07:12:17;12.02;;;7.68;;
39102;SDS011;24847;48.218;16.414;2024-01-15T07:17:19;9.48;;;6.60;;
39102;SDS011;24847;48.218;16.414;2024-01-15T07:22:21;11.07;;;7.53;;
39102;SDS011;24847;48.218;16.414;2024-01-15T07:27:24;9.77;;;6.63;;
39102;SDS011;24847;48.218;16.414;2024-01-15T07:32:27;11.18;;;6.70;;
39102;SDS011;24847;48.218;16.414;2024-01-15T07:37:29;9.02;;;6.45;;
39102;SDS011;24847;48.218;16.414;2024-01-15T07:42:32;11.55;;;6.72;;
39102;SDS011;24847;48.218;16.414;2024-01-15T07:47:35;10.07;;;6.00;;
39102;SDS011;24847;48.218;16.414;2024-01-15T07:52:37;9.13;;;6.13;;
39102;SDS011;24847;48.218;16.414;2024-01-15T07:57:43;9.68;;;6.63;;
39102;SDS011;24847;48.218;16.414;2024-01-15T08:02:46;10.30;;;6.38;;
39102;SDS011;24847;48.218;16.414;2024-01-15T08:07:48;10.88;;;6.90;;
39102;SDS011;24847;48.218;16.414;2024-01-15T08:12:52;9.05;;;6.32;;
39102;SDS011;24847;48.218;16.414;2024-01-15T08:17:54;10.23;;;6.88;;
39102;SDS011;24847;48.218;16.414;2024-01-15T08:22:57;9.13;;;5.93;;
39102;SDS011;24847;48.218;16.414;2024-01-15T08:28:00;10.15;;;6.22;;
39102;SDS011;24847;48.218;16.414;2024-01-15T08:33:02;9.52;;;6.20;;
39102;SDS011;24847;48.218;16.414;2024-01-15T08:38:05;10.18;;;6.40;;
39102;SDS011;24847;48.218;16.414;2024-01-15T08:43:09;9.82;;;6.38;;
39102;SDS011;24847;48.218;16.414;2024-01-15T08:48:11;7.97;;;5.40;;
39102;SDS011;24847;48.218;16.414;2024-01-15T08:53:14;8.63;;;5.45;;
39102;SDS011;24847;48.218;16.414;2024-01-15T08:58:19;9.85;;;5.95;;
39102;SDS011;24847;48.218;16.414;2024-01-15T09:03:21;7.32;;;5.13;;
39102;SDS011;24847;48.218;16.414;2024-01-15T09:08:23;8.35;;;5.20;;
39102;SDS011;24847;48.218;16.414;2024-01-15T09:13:29;6.30;;;4.50;;
39102;SDS011;24847;48.218;16.414;2024-01-15T09:18:35;8.48;;;5.10;;
39102;SDS011;24847;48.218;16.414;2024-01-15T09:23:37;8.32;;;4.97;;
39102;SDS011;24847;48.218;16.414;2024-01-15T09:28:41;6.72;;;4.80;;
39102;SDS011;24847;48.218;16.414;2024-01-15T09:33:44;7.10;;;4.65;;
39102;SDS011;24847;48.218;16.414;2024-01-15T09:38:46;6.30;;;4.55;;
39102;SDS011;24847;48.218;16.414;2024-01-15T09:43:50;6.93;;;5.00;;
39102;SDS011;24847;48.218;16.414;2024-01-15T09:48:53;6.82;;;4.97;;
39102;SDS011;24847;48.218;16.414;2024-01-15T09:53:55;8.45;;;4.97;;
39102;SDS011;24847;48.218;16.414;2024-01-15T09:59:00;7.38;;;4.68;;
39102;SDS011;24847;48.218;16.414;2024-01-15T10:04:04;6.75;;;4.32;;
39102;SDS011;24847;48.218;16.414;2024-01-15T10:09:06;6.18;;;3.90;;
39102;SDS011;24847;48.218;16.414;2024-01-15T10:14:10;6.75;;;4.50;;
39102;SDS011;24847;48.218;16.414;2024-01-15T10:19:13;5.93;;;4.32;;
39102;SDS011;24847;48.218;16.414;2024-01-15T10:24:15;7.75;;;5.30;;
39102;SDS011;24847;48.218;16.414;2024-01-15T10:29:20;9.40;;;4.80;;
39102;SDS011;24847;48.218;16.414;2024-01-15T10:34:22;8.25;;;4.70;;
39102;SDS011;24847;48.218;16.414;2024-01-15T10:39:24;6.80;;;3.85;;
39102;SDS011;24847;48.218;16.414;2024-01-15T10:44:28;4.45;;;3.55;;
39102;SDS011;24847;48.218;16.414;2024-01-15T10:49:30;5.75;;;3.92;;
39102;SDS011;24847;48.218;16.414;2024-01-15T10:54:32;5.45;;;3.70;;
39102;SDS011;24847;48.218;16.414;2024-01-15T10:59:38;5.75;;;3.38;;
39102;SDS011;24847;48.218;16.414;2024-01-15T11:04:40;5.50;;;3.33;;
39102;SDS011;24847;48.218;16.414;2024-01-15T11:09:42;5.43;;;3.55;;
39102;SDS011;24847;48.218;16.414;2024-01-15T11:14:47;6.53;;;3.78;;
39102;SDS011;24847;48.218;16.414;2024-01-15T11:19:50;5.53;;;3.80;;
39102;SDS011;24847;48.218;16.414;2024-01-15T11:24:54;5.22;;;3.40;;
39102;SDS011;24847;48.218;16.414;2024-01-15T11:30:04;4.25;;;3.28;;
39102;SDS011;24847;48.218;16.414;2024-01-15T11:35:10;4.60;;;3.20;;
39102;SDS011;24847;48.218;16.414;2024-01-15T11:40:13;5.78;;;3.40;;
39102;SDS011;24847;48.218;16.414;2024-01-15T11:45:21;6.15;;;3.33;;
39102;SDS011;24847;48.218;16.414;2024-01-15T11:50:23;4.47;;;3.30;;
39102;SDS011;24847;48.218;16.414;2024-01-15T11:55:30;4.57;;;2.90;;
39102;SDS011;24847;48.218;16.414;2024-01-15T12:00:40;5.15;;;3.45;;
39102;SDS011;24847;48.218;16.414;2024-01-15T12:05:44;4.03;;;2.97;;
39102;SDS011;24847;48.218;16.414;2024-01-15T12:10:47;5.25;;;3.20;;
39102;SDS011;24847;48.218;16.414;2024-01-15T12:15:50;5.93;;;3.17;;
39102;SDS011;24847;48.218;16.414;2024-01-15T12:20:53;4.32;;;3.17;;
39102;SDS011;24847;48.218;16.414;2024-01-15T12:25:56;5.78;;;3.08;;
39102;SDS011;24847;48.218;16.414;2024-01-15T12:30:59;5.60;;;3.33;;
39102;SDS011;24847;48.218;16.414;2024-01-15T12:36:05;4.63;;;3.08;;
39102;SDS011;24847;48.218;16.414;2024-01-15T12:41:08;3.40;;;2.47;;
39102;SDS011;24847;48.218;16.414;2024-01-15T12:46:11;4.40;;;3.50;;
39102;SDS011;24847;48.218;16.414;2024-01-15T12:51:14;5.60;;;3.20;;
39102;SDS011;24847;48.218;16.414;2024-01-15T12:56:16;5.18;;;3.33;;
39102;SDS011;24847;48.218;16.414;2024-01-15T13:01:20;4.93;;;2.90;;
39102;SDS011;24847;48.218;16.414;2024-01-15T13:06:22;4.63;;;3.08;;
39102;SDS011;24847;48.218;16.414;2024-01-15T13:11:25;4.55;;;3.10;;
39102;SDS011;24847;48.218;16.414;2024-01-15T13:16:29;3.47;;;2.53;;
39102;SDS011;24847;48.218;16.414;2024-01-15T13:21:31;3.45;;;3.00;;
39102;SDS011;24847;48.218;16.414;2024-01-15T13:26:33;3.80;;;2.67;;
39102;SDS011;24847;48.218;16.414;2024-01-15T13:31:38;3.10;;;2.40;;
39102;SDS011;24847;48.218;16.414;2024-01-15T13:36:40;4.80;;;2.72;;
39102;SDS011;24847;48.218;16.414;2024-01-15T13:41:42;3.83;;;2.58;;
39102;SDS011;24847;48.218;16.414;2024-01-15T13:46:46;3.50;;;2.40;;
39102;SDS011;24847;48.218;16.414;2024-01-15T13:51:48;3.13;;;1.80;;
39102;SDS011;24847;48.218;16.414;2024-01-15T13:56:51;4.20;;;2.40;;
39102;SDS011;24847;48.218;16.414;2024-01-15T14:01:54;3.58;;;2.65;;
39102;SDS011;24847;48.218;16.414;2024-01-15T14:06:57;3.40;;;2.30;;
39102;SDS011;24847;48.218;16.414;2024-01-15T14:11:59;3.72;;;2.20;;
39102;SDS011;24847;48.218;16.414;2024-01-15T14:17:04;4.78;;;2.40;;
39102;SDS011;24847;48.218;16.414;2024-01-15T14:22:06;2.90;;;2.20;;
39102;SDS011;24847;48.218;16.414;2024-01-15T14:27:08;2.60;;;2.00;;
39102;SDS011;24847;48.218;16.414;2024-01-15T14:32:11;3.15;;;2.17;;
39102;SDS011;24847;48.218;16.414;2024-01-15T14:37:14;3.95;;;2.28;;
39102;SDS011;24847;48.218;16.414;2024-01-15T14:42:16;3.35;;;2.10;;
39102;SDS011;24847;48.218;16.414;2024-01-15T14:47:20;2.78;;;1.85;;
39102;SDS011;24847;48.218;16.414;2024-01-15T14:52:31;2.42;;;1.88;;
39102;SDS011;24847;48.218;16.414;2024-01-15T14:57:33;2.95;;;1.90;;
39102;SDS011;24847;48.218;16.414;2024-01-15T15:02:37;2.10;;;1.70;;
39102;SDS011;24847;48.218;16.414;2024-01-15T15:07:39;2.60;;;2.03;;
39102;SDS011;24847;48.218;16.414;2024-01-15T15:12:41;2.95;;;2.10;;
39102;SDS011;24847;48.218;16.414;2024-01-15T15:17:45;3.72;;;1.95;;
39102;SDS011;24847;48.218;16.414;2024-01-15T15:22:48;5.50;;;2.38;;
39102;SDS011;24847;48.218;16.414;2024-01-15T15:27:52;4.13;;;2.30;;
39102;SDS011;24847;48.218;16.414;2024-01-15T15:32:55;2.92;;;2.15;;
39102;SDS011;24847;48.218;16.414;2024-01-15T15:37:58;3.20;;;1.73;;
39102;SDS011;24847;48.218;16.414;2024-01-15T15:43:00;2.17;;;1.67;;
39102;SDS011;24847;48.218;16.414;2024-01-15T15:48:04;2.22;;;1.80;;
39102;SDS011;24847;48.218;16.414;2024-01-15T15:53:06;3.28;;;1.60;;
39102;SDS011;24847;48.218;16.414;2024-01-15T15:58:08;2.97;;;1.70;;
39102;SDS011;24847;48.218;16.414;2024-01-15T16:03:12;2.88;;;1.60;;
39102;SDS011;24847;48.218;16.414;2024-01-15T16:08:14;3.38;;;1.70;;
39102;SDS011;24847;48.218;16.414;2024-01-15T16:13:17;2.97;;;1.70;;
39102;SDS011;24847;48.218;16.414;2024-01-15T16:18:20;2.65;;;1.75;;
39102;SDS011;24847;48.218;16.414;2024-01-15T16:23:22;2.38;;;1.80;;
39102;SDS011;24847;48.218;16.414;2024-01-15T16:28:25;2.90;;;1.92;;
39102;SDS011;24847;48.218;16.414;2024-01-15T16:33:28;2.20;;;1.85;;
39102;SDS011;24847;48.218;16.414;2024-01-15T16:38:30;2.65;;;1.70;;
39102;SDS011;24847;48.218;16.414;2024-01-15T16:43:32;3.30;;;2.10;;
39102;SDS011;24847;48.218;16.414;2024-01-15T16:48:36;3.00;;;1.77;;
39102;SDS011;24847;48.218;16.414;2024-01-15T16:53:38;2.42;;;1.70;;
39102;SDS011;24847;48.218;16.414;2024-01-15T16:58:41;3.28;;;1.70;;
39102;SDS011;24847;48.218;16.414;2024-01-15T17:03:45;2.03;;;1.52;;
39102;SDS011;24847;48.218;16.414;2024-01-15T17:08:47;2.38;;;1.73;;
39102;SDS011;24847;48.218;16.414;2024-01-15T17:13:49;2.15;;;1.70;;
39102;SDS011;24847;48.218;16.414;2024-01-15T17:18:52;3.05;;;2.13;;
39102;SDS011;24847;48.218;16.414;2024-01-15T17:23:54;3.28;;;1.77;;
39102;SDS011;24847;48.218;16.414;2024-01-15T17:28:57;2.72;;;1.98;;
39102;SDS011;24847;48.218;16.414;2024-01-15T17:34:01;3.47;;;1.80;;
39102;SDS011;24847;48.218;16.414;2024-01-15T17:39:04;3.70;;;1.70;;
39102;SDS011;24847;48.218;16.414;2024-01-15T17:44:06;3.35;;;1.92;;
39102;SDS011;24847;48.218;16.414;2024-01-15T17:49:10;4.05;;;1.92;;
39102;SDS011;24847;48.218;16.414;2024-01-15T17:54:12;2.58;;;1.65;;
39102;SDS011;24847;48.218;16.414;2024-01-15T17:59:15;2.33;;;1.80;;
39102;SDS011;24847;48.218;16.414;2024-01-15T18:04:18;3.45;;;1.67;;
39102;SDS011;24847;48.218;16.414;2024-01-15T18:09:21;1.90;;;1.40;;
39102;SDS011;24847;48.218;16.414;2024-01-15T18:14:23;1.60;;;1.30;;
39102;SDS011;24847;48.218;16.414;2024-01-15T18:19:27;2.38;;;1.60;;
39102;SDS011;24847;48.218;16.414;2024-01-15T18:24:29;1.77;;;1.60;;
39102;SDS011;24847;48.218;16.414;2024-01-15T18:29:34;1.50;;;1.30;;
39102;SDS011;24847;48.218;16.414;2024-01-15T18:34:37;2.50;;;1.50;;
39102;SDS011;24847;48.218;16.414;2024-01-15T18:39:42;1.98;;;1.52;;
39102;SDS011;24847;48.218;16.414;2024-01-15T18:44:44;2.20;;;1.40;;
39102;SDS011;24847;48.218;16.414;2024-01-15T18:49:47;2.78;;;1.65;;
39102;SDS011;24847;48.218;16.414;2024-01-15T18:54:50;3.20;;;2.30;;
39102;SDS011;24847;48.218;16.414;2024-01-15T18:59:52;2.13;;;1.50;;
39102;SDS011;24847;48.218;16.414;2024-01-15T19:04:55;1.73;;;1.48;;
39102;SDS011;24847;48.218;16.414;2024-01-15T19:09:57;2.47;;;1.60;;
39102;SDS011;24847;48.218;16.414;2024-01-15T19:15:00;1.75;;;1.30;;
39102;SDS011;24847;48.218;16.414;2024-01-15T19:20:03;2.75;;;1.88;;
39102;SDS011;24847;48.218;16.414;2024-01-15T19:25:08;3.45;;;1.60;;
39102;SDS011;24847;48.218;16.414;2024-01-15T19:30:12;2.60;;;1.77;;
39102;SDS011;24847;48.218;16.414;2024-01-15T19:35:18;2.17;;;1.30;;
39102;SDS011;24847;48.218;16.414;2024-01-15T19:40:20;1.75;;;1.30;;
39102;SDS011;24847;48.218;16.414;2024-01-15T19:45:22;4.25;;;1.25;;
39102;SDS011;24847;48.218;16.414;2024-01-15T19:50:25;1.92;;;1.45;;
39102;SDS011;24847;48.218;16.414;2024-01-15T19:55:28;1.80;;;1.23;;
39102;SDS011;24847;48.218;16.414;2024-01-15T20:00:30;1.77;;;1.27;;
39102;SDS011;24847;48.218;16.414;2024-01-15T20:05:33;1.90;;;1.13;;
39102;SDS011;24847;48.218;16.414;2024-01-15T20:10:36;2.22;;;1.30;;
39102;SDS011;24847;48.218;16.414;2024-01-15T20:15:39;1.85;;;1.30;;
39102;SDS011;24847;48.218;16.414;2024-01-15T20:20:42;1.98;;;1.30;;
39102;SDS011;24847;48.218;16.414;2024-01-15T20:25:45;1.80;;;1.10;;
39102;SDS011;24847;48.218;16.414;2024-01-15T20:30:47;2.10;;;1.40;;
39102;SDS011;24847;48.218;16.414;2024-01-15T20:35:51;1.83;;;1.42;;
39102;SDS011;24847;48.218;16.414;2024-01-15T20:40:54;1.65;;;1.35;;
39102;SDS011;24847;48.218;16.414;2024-01-15T20:45:57;2.08;;;1.63;;
39102;SDS011;24847;48.218;16.414;2024-01-15T20:51:01;2.05;;;1.60;;
39102;SDS011;24847;48.218;16.414;2024-01-15T20:56:04;2.47;;;1.70;;
39102;SDS011;24847;48.218;16.414;2024-01-15T21:01:06;2.28;;;1.65;;
39102;SDS011;24847;48.218;16.414;2024-01-15T21:06:29;3.10;;;2.00;;
39102;SDS011;24847;48.218;16.414;2024-01-15T21:11:51;2.80;;;1.80;;
39102;SDS011;24847;48.218;16.414;2024-01-15T21:16:54;2.63;;;1.85;;
39102;SDS011;24847;48.218;16.414;2024-01-15T21:21:58;3.22;;;2.30;;
39102;SDS011;24847;48.218;16.414;2024-01-15T21:27:00;3.30;;;2.15;;
39102;SDS011;24847;48.218;16.414;2024-01-15T21:32:04;3.05;;;2.22;;
39102;SDS011;24847;48.218;16.414;2024-01-15T21:37:08;3.38;;;2.45;;
39102;SDS011;24847;48.218;16.414;2024-01-15T21:42:11;2.97;;;2.47;;
39102;SDS011;24847;48.218;16.414;2024-01-15T21:47:13;2.05;;;1.80;;
39102;SDS011;24847;48.218;16.414;2024-01-15T21:52:17;3.13;;;2.10;;
39102;SDS011;24847;48.218;16.414;2024-01-15T21:57:19;2.50;;;2.00;;
39102;SDS011;24847;48.218;16.414;2024-01-15T22:02:21;3.67;;;2.60;;
39102;SDS011;24847;48.218;16.414;2024-01-15T22:07:25;2.80;;;2.28;;
39102;SDS011;24847;48.218;16.414;2024-01-15T22:12:27;3.00;;;2.20;;
39102;SDS011;24847;48.218;16.414;2024-01-15T22:17:29;3.13;;;2.40;;
39102;SDS011;24847;48.218;16.414;2024-01-15T22:22:33;3.25;;;1.98;;
39102;SDS011;24847;48.218;16.414;2024-01-15T22:27:35;3.25;;;2.10;;
39102;SDS011;24847;48.218;16.414;2024-01-15T22:32:37;4.10;;;2.47;;
39102;SDS011;24847;48.218;16.414;2024-01-15T22:37:40;2.70;;;2.00;;
39102;SDS011;24847;48.218;16.414;2024-01-15T22:42:43;2.92;;;2.38;;
39102;SDS011;24847;48.218;16.414;2024-01-15T22:47:45;2.65;;;2.10;;
39102;SDS011;24847;48.218;16.414;2024-01-15T22:52:49;3.42;;;2.78;;
39102;SDS011;24847;48.218;16.414;2024-01-15T22:57:51;2.70;;;1.90;;
39102;SDS011;24847;48.218;16.414;2024-01-15T23:02:53;2.20;;;1.60;;
39102;SDS011;24847;48.218;16.414;2024-01-15T23:07:58;2.38;;;1.70;;
39102;SDS011;24847;48.218;16.414;2024-01-15T23:13:01;2.63;;;1.85;;
39102;SDS011;24847;48.218;16.414;2024-01-15T23:18:04;2.95;;;2.05;;
39102;SDS011;24847;48.218;16.414;2024-01-15T23:23:08;2.90;;;1.90;;
39102;SDS011;24847;48.218;16.414;2024-01-15T23:28:10;2.10;;;1.90;;
39102;SDS011;24847;48.218;16.414;2024-01-15T23:33:12;2.63;;;2.10;;
39102;SDS011;24847;48.218;16.414;2024-01-15T23:38:16;2.55;;;1.90;;
39102;SDS011;24847;48.218;16.414;2024-01-15T23:43:18;2.53;;;2.08;;
39102;SDS011;24847;48.218;16.414;2024-01-15T23:48:20;2.65;;;1.90;;
39102;SDS011;24847;48.218;16.414;2024-01-15T23:53:24;2.95;;;2.28;;
